sensor_id;sensor_type;location;lat;lon;timestamp;P1;durP1;ratioP1;P2;durP2;ratioP2
70199;SDS011;57587;55.688;37.600;2023-10-19T00:00:21;6.97;;;5.35;;
70199;SDS011;57587;55.688;37.600;2023-10-19T00:02:50;6.90;;;5.03;;
70199;SDS011;57587;55.688;37.600;2023-10-19T00:05:21;7.13;;;4.93;;
70199;SDS011;57587;55.688;37.600;2023-10-19T00:07:53;6.45;;;4.97;;
70199;SDS011;57587;55.688;37.600;2023-10-19T00:10:24;7.78;;;5.07;;
70199;SDS011;57587;55.688;37.600;2023-10-19T00:12:53;7.07;;;4.60;;
70199;SDS011;57587;55.688;37.600;2023-10-19T00:15:27;7.97;;;4.80;;
70199;SDS011;57587;55.688;37.600;2023-10-19T00:17:58;7.03;;;4.38;;
70199;SDS011;57587;55.688;37.600;2023-10-19T00:20:46;7.82;;;5.13;;
70199;SDS011;57587;55.688;37.600;2023-10-19T00:23:14;5.30;;;4.50;;
70199;SDS011;57587;55.688;37.600;2023-10-19T00:25:45;8.23;;;4.57;;
70199;SDS011;57587;55.688;37.600;2023-10-19T00:28:18;9.17;;;5.03;;
70199;SDS011;57587;55.688;37.600;2023-10-19T00:30:45;6.57;;;4.75;;
70199;SDS011;57587;55.688;37.600;2023-10-19T00:33:15;7.05;;;4.80;;
70199;SDS011;57587;55.688;37.600;2023-10-19T00:35:47;6.75;;;4.68;;
70199;SDS011;57587;55.688;37.600;2023-10-19T00:38:36;6.80;;;4.88;;
70199;SDS011;57587;55.688;37.600;2023-10-19T00:41:05;6.90;;;4.73;;
70199;SDS011;57587;55.688;37.600;2023-10-19T00:43:43;6.32;;;4.68;;
70199;SDS011;57587;55.688;37.600;2023-10-19T00:46:11;8.07;;;4.60;;
70199;SDS011;57587;55.688;37.600;2023-10-19T00:49:01;7.88;;;5.07;;
70199;SDS011;57587;55.688;37.600;2023-10-19T00:51:36;7.15;;;4.93;;
70199;SDS011;57587;55.688;37.600;2023-10-19T00:54:29;5.67;;;4.23;;
70199;SDS011;57587;55.688;37.600;2023-10-19T00:57:03;6.05;;;4.15;;
70199;SDS011;57587;55.688;37.600;2023-10-19T00:59:38;6.57;;;4.70;;
70199;SDS011;57587;55.688;37.600;2023-10-19T01:02:25;6.82;;;4.47;;
70199;SDS011;57587;55.688;37.600;2023-10-19T01:04:53;7.68;;;5.95;;
70199;SDS011;57587;55.688;37.600;2023-10-19T01:07:29;7.63;;;4.70;;
70199;SDS011;57587;55.688;37.600;2023-10-19T01:09:58;5.70;;;4.45;;
70199;SDS011;57587;55.688;37.600;2023-10-19T01:12:29;8.10;;;5.57;;
70199;SDS011;57587;55.688;37.600;2023-10-19T01:17:40;7.80;;;5.20;;
70199;SDS011;57587;55.688;37.600;2023-10-19T01:20:14;7.37;;;5.40;;
70199;SDS011;57587;55.688;37.600;2023-10-19T01:22:52;7.25;;;5.32;;
70199;SDS011;57587;55.688;37.600;2023-10-19T01:25:22;8.00;;;5.15;;
70199;SDS011;57587;55.688;37.600;2023-10-19T01:28:02;7.38;;;5.00;;
70199;SDS011;57587;55.688;37.600;2023-10-19T01:30:35;9.02;;;4.70;;
70199;SDS011;57587;55.688;37.600;2023-10-19T01:33:03;8.37;;;5.20;;
70199;SDS011;57587;55.688;37.600;2023-10-19T01:35:35;7.00;;;5.22;;
70199;SDS011;57587;55.688;37.600;2023-10-19T01:38:21;8.77;;;5.40;;
70199;SDS011;57587;55.688;37.600;2023-10-19T01:40:48;7.25;;;5.07;;
70199;SDS011;57587;55.688;37.600;2023-10-19T01:43:17;9.15;;;5.53;;
70199;SDS011;57587;55.688;37.600;2023-10-19T01:45:48;8.93;;;5.63;;
70199;SDS011;57587;55.688;37.600;2023-10-19T01:48:20;7.45;;;4.85;;
70199;SDS011;57587;55.688;37.600;2023-10-19T01:50:54;7.57;;;4.82;;
70199;SDS011;57587;55.688;37.600;2023-10-19T01:53:22;7.93;;;5.10;;
70199;SDS011;57587;55.688;37.600;2023-10-19T01:55:51;8.65;;;5.53;;
70199;SDS011;57587;55.688;37.600;2023-10-19T01:58:24;8.07;;;5.20;;
70199;SDS011;57587;55.688;37.600;2023-10-19T02:00:52;9.98;;;5.18;;
70199;SDS011;57587;55.688;37.600;2023-10-19T02:03:27;7.05;;;4.93;;
70199;SDS011;57587;55.688;37.600;2023-10-19T02:05:58;9.20;;;5.15;;
70199;SDS011;57587;55.688;37.600;2023-10-19T02:08:26;9.45;;;5.45;;
70199;SDS011;57587;55.688;37.600;2023-10-19T02:10:53;7.53;;;5.30;;
70199;SDS011;57587;55.688;37.600;2023-10-19T02:13:21;8.07;;;5.35;;
70199;SDS011;57587;55.688;37.600;2023-10-19T02:15:48;9.77;;;5.10;;
70199;SDS011;57587;55.688;37.600;2023-10-19T02:18:16;9.50;;;5.13;;
70199;SDS011;57587;55.688;37.600;2023-10-19T02:20:44;8.10;;;5.43;;
70199;SDS011;57587;55.688;37.600;2023-10-19T02:23:15;9.80;;;5.67;;
70199;SDS011;57587;55.688;37.600;2023-10-19T02:25:42;8.00;;;6.35;;
70199;SDS011;57587;55.688;37.600;2023-10-19T02:28:09;9.85;;;5.88;;
70199;SDS011;57587;55.688;37.600;2023-10-19T02:30:39;7.60;;;5.45;;
70199;SDS011;57587;55.688;37.600;2023-10-19T02:33:09;7.90;;;5.80;;
70199;SDS011;57587;55.688;37.600;2023-10-19T02:35:38;8.13;;;5.90;;
70199;SDS011;57587;55.688;37.600;2023-10-19T02:38:07;7.13;;;5.75;;
70199;SDS011;57587;55.688;37.600;2023-10-19T02:40:34;6.95;;;5.63;;
70199;SDS011;57587;55.688;37.600;2023-10-19T02:43:04;7.93;;;6.03;;
70199;SDS011;57587;55.688;37.600;2023-10-19T02:45:34;10.15;;;5.65;;
70199;SDS011;57587;55.688;37.600;2023-10-19T02:48:01;8.53;;;5.80;;
70199;SDS011;57587;55.688;37.600;2023-10-19T02:50:28;8.00;;;5.93;;
70199;SDS011;57587;55.688;37.600;2023-10-19T02:52:55;8.40;;;6.43;;
70199;SDS011;57587;55.688;37.600;2023-10-19T02:55:23;7.28;;;5.63;;
70199;SDS011;57587;55.688;37.600;2023-10-19T02:57:51;8.73;;;5.93;;
70199;SDS011;57587;55.688;37.600;2023-10-19T03:00:18;7.90;;;5.73;;
70199;SDS011;57587;55.688;37.600;2023-10-19T03:02:47;7.55;;;5.95;;
70199;SDS011;57587;55.688;37.600;2023-10-19T03:05:15;7.85;;;5.85;;
70199;SDS011;57587;55.688;37.600;2023-10-19T03:07:44;7.25;;;5.32;;
70199;SDS011;57587;55.688;37.600;2023-10-19T03:10:11;8.00;;;5.78;;
70199;SDS011;57587;55.688;37.600;2023-10-19T03:12:57;7.57;;;5.53;;
70199;SDS011;57587;55.688;37.600;2023-10-19T03:15:24;6.72;;;5.47;;
70199;SDS011;57587;55.688;37.600;2023-10-19T03:17:51;6.75;;;5.85;;
70199;SDS011;57587;55.688;37.600;2023-10-19T03:20:18;10.00;;;5.63;;
70199;SDS011;57587;55.688;37.600;2023-10-19T03:22:50;7.07;;;5.22;;
70199;SDS011;57587;55.688;37.600;2023-10-19T03:25:18;10.77;;;5.37;;
70199;SDS011;57587;55.688;37.600;2023-10-19T03:28:03;8.38;;;5.50;;
70199;SDS011;57587;55.688;37.600;2023-10-19T03:30:39;7.93;;;6.38;;
70199;SDS011;57587;55.688;37.600;2023-10-19T03:33:06;8.52;;;5.90;;
70199;SDS011;57587;55.688;37.600;2023-10-19T03:35:39;8.05;;;6.10;;
70199;SDS011;57587;55.688;37.600;2023-10-19T03:38:09;7.60;;;6.00;;
70199;SDS011;57587;55.688;37.600;2023-10-19T03:40:43;7.07;;;5.70;;
70199;SDS011;57587;55.688;37.600;2023-10-19T03:43:19;7.03;;;5.65;;
70199;SDS011;57587;55.688;37.600;2023-10-19T03:45:48;7.65;;;5.57;;
70199;SDS011;57587;55.688;37.600;2023-10-19T03:48:20;12.07;;;6.30;;
70199;SDS011;57587;55.688;37.600;2023-10-19T03:50:53;7.90;;;6.00;;
70199;SDS011;57587;55.688;37.600;2023-10-19T03:53:23;10.48;;;5.90;;
70199;SDS011;57587;55.688;37.600;2023-10-19T03:55:51;9.10;;;6.43;;
70199;SDS011;57587;55.688;37.600;2023-10-19T03:58:22;8.13;;;5.65;;
70199;SDS011;57587;55.688;37.600;2023-10-19T04:00:49;7.63;;;5.85;;
70199;SDS011;57587;55.688;37.600;2023-10-19T04:03:17;9.17;;;6.53;;
70199;SDS011;57587;55.688;37.600;2023-10-19T04:05:44;7.30;;;5.78;;
70199;SDS011;57587;55.688;37.600;2023-10-19T04:08:16;8.88;;;6.68;;
70199;SDS011;57587;55.688;37.600;2023-10-19T04:10:47;9.02;;;6.15;;
70199;SDS011;57587;55.688;37.600;2023-10-19T04:13:34;9.00;;;6.28;;
70199;SDS011;57587;55.688;37.600;2023-10-19T04:16:03;10.47;;;5.87;;
70199;SDS011;57587;55.688;37.600;2023-10-19T04:18:30;9.27;;;6.38;;
70199;SDS011;57587;55.688;37.600;2023-10-19T04:20:58;9.32;;;6.75;;
70199;SDS011;57587;55.688;37.600;2023-10-19T04:23:25;8.38;;;6.00;;
70199;SDS011;57587;55.688;37.600;2023-10-19T04:25:55;11.00;;;6.60;;
70199;SDS011;57587;55.688;37.600;2023-10-19T04:28:26;9.57;;;6.83;;
70199;SDS011;57587;55.688;37.600;2023-10-19T04:31:06;8.07;;;6.68;;
70199;SDS011;57587;55.688;37.600;2023-10-19T04:33:34;8.48;;;6.53;;
70199;SDS011;57587;55.688;37.600;2023-10-19T04:36:01;8.40;;;6.30;;
70199;SDS011;57587;55.688;37.600;2023-10-19T04:38:29;8.80;;;6.53;;
70199;SDS011;57587;55.688;37.600;2023-10-19T04:41:03;9.50;;;6.17;;
70199;SDS011;57587;55.688;37.600;2023-10-19T04:43:37;8.32;;;6.18;;
70199;SDS011;57587;55.688;37.600;2023-10-19T04:46:09;7.20;;;5.53;;
70199;SDS011;57587;55.688;37.600;2023-10-19T04:48:39;8.25;;;5.85;;
70199;SDS011;57587;55.688;37.600;2023-10-19T04:51:07;8.30;;;5.95;;
70199;SDS011;57587;55.688;37.600;2023-10-19T04:53:36;9.73;;;6.07;;
70199;SDS011;57587;55.688;37.600;2023-10-19T04:56:04;7.88;;;5.88;;
70199;SDS011;57587;55.688;37.600;2023-10-19T04:58:32;9.85;;;5.53;;
70199;SDS011;57587;55.688;37.600;2023-10-19T05:01:00;7.95;;;5.40;;
70199;SDS011;57587;55.688;37.600;2023-10-19T05:03:28;8.10;;;5.53;;
70199;SDS011;57587;55.688;37.600;2023-10-19T05:05:56;7.40;;;5.13;;
70199;SDS011;57587;55.688;37.600;2023-10-19T05:08:23;7.18;;;5.18;;
70199;SDS011;57587;55.688;37.600;2023-10-19T05:10:54;7.78;;;5.32;;
70199;SDS011;57587;55.688;37.600;2023-10-19T05:13:23;7.72;;;5.20;;
70199;SDS011;57587;55.688;37.600;2023-10-19T05:15:53;8.23;;;5.13;;
70199;SDS011;57587;55.688;37.600;2023-10-19T05:18:21;7.93;;;5.37;;
70199;SDS011;57587;55.688;37.600;2023-10-19T05:20:49;8.50;;;5.65;;
70199;SDS011;57587;55.688;37.600;2023-10-19T05:23:22;8.30;;;5.65;;
70199;SDS011;57587;55.688;37.600;2023-10-19T05:25:59;7.22;;;5.70;;
70199;SDS011;57587;55.688;37.600;2023-10-19T05:28:28;7.25;;;5.70;;
70199;SDS011;57587;55.688;37.600;2023-10-19T05:30:55;7.83;;;4.93;;
70199;SDS011;57587;55.688;37.600;2023-10-19T05:33:23;7.70;;;5.30;;
70199;SDS011;57587;55.688;37.600;2023-10-19T05:35:50;8.40;;;5.28;;
70199;SDS011;57587;55.688;37.600;2023-10-19T05:38:18;6.88;;;5.20;;
70199;SDS011;57587;55.688;37.600;2023-10-19T05:40:46;9.05;;;5.95;;
70199;SDS011;57587;55.688;37.600;2023-10-19T05:43:14;9.97;;;5.50;;
70199;SDS011;57587;55.688;37.600;2023-10-19T05:45:41;7.22;;;5.30;;
70199;SDS011;57587;55.688;37.600;2023-10-19T05:48:08;7.18;;;5.57;;
70199;SDS011;57587;55.688;37.600;2023-10-19T05:50:38;8.00;;;4.90;;
70199;SDS011;57587;55.688;37.600;2023-10-19T05:53:05;7.50;;;5.20;;
70199;SDS011;57587;55.688;37.600;2023-10-19T05:55:32;11.80;;;5.77;;
70199;SDS011;57587;55.688;37.600;2023-10-19T05:58:01;7.30;;;5.25;;
70199;SDS011;57587;55.688;37.600;2023-10-19T06:00:31;7.93;;;5.28;;
70199;SDS011;57587;55.688;37.600;2023-10-19T06:02:58;8.10;;;5.13;;
70199;SDS011;57587;55.688;37.600;2023-10-19T06:05:26;7.90;;;5.28;;
70199;SDS011;57587;55.688;37.600;2023-10-19T06:07:53;6.63;;;5.57;;
70199;SDS011;57587;55.688;37.600;2023-10-19T06:10:21;6.93;;;5.40;;
70199;SDS011;57587;55.688;37.600;2023-10-19T06:12:50;7.88;;;5.25;;
70199;SDS011;57587;55.688;37.600;2023-10-19T06:15:18;7.03;;;5.10;;
70199;SDS011;57587;55.688;37.600;2023-10-19T06:18:01;7.07;;;5.03;;
70199;SDS011;57587;55.688;37.600;2023-10-19T06:20:28;7.33;;;5.00;;
70199;SDS011;57587;55.688;37.600;2023-10-19T06:22:56;8.52;;;4.85;;
70199;SDS011;57587;55.688;37.600;2023-10-19T06:25:32;9.15;;;5.10;;
70199;SDS011;57587;55.688;37.600;2023-10-19T06:28:03;7.20;;;4.90;;
70199;SDS011;57587;55.688;37.600;2023-10-19T06:30:30;7.93;;;4.78;;
70199;SDS011;57587;55.688;37.600;2023-10-19T06:32:58;6.17;;;4.23;;
70199;SDS011;57587;55.688;37.600;2023-10-19T06:35:31;7.03;;;5.10;;
70199;SDS011;57587;55.688;37.600;2023-10-19T06:37:59;8.25;;;4.40;;
70199;SDS011;57587;55.688;37.600;2023-10-19T06:40:27;5.47;;;4.22;;
70199;SDS011;57587;55.688;37.600;2023-10-19T06:42:55;6.05;;;4.55;;
70199;SDS011;57587;55.688;37.600;2023-10-19T06:45:23;6.73;;;4.20;;
70199;SDS011;57587;55.688;37.600;2023-10-19T06:47:56;6.03;;;4.30;;
70199;SDS011;57587;55.688;37.600;2023-10-19T06:50:25;6.95;;;4.03;;
70199;SDS011;57587;55.688;37.600;2023-10-19T06:52:52;5.45;;;4.45;;
70199;SDS011;57587;55.688;37.600;2023-10-19T06:55:21;5.25;;;4.03;;
70199;SDS011;57587;55.688;37.600;2023-10-19T06:57:50;5.70;;;3.97;;
70199;SDS011;57587;55.688;37.600;2023-10-19T07:00:23;5.55;;;3.85;;
70199;SDS011;57587;55.688;37.600;2023-10-19T07:02:54;5.47;;;3.88;;
70199;SDS011;57587;55.688;37.600;2023-10-19T07:05:23;4.70;;;3.53;;
70199;SDS011;57587;55.688;37.600;2023-10-19T07:07:51;4.35;;;3.70;;
70199;SDS011;57587;55.688;37.600;2023-10-19T07:10:21;6.57;;;3.77;;
70199;SDS011;57587;55.688;37.600;2023-10-19T07:12:53;5.28;;;3.92;;
70199;SDS011;57587;55.688;37.600;2023-10-19T07:15:22;5.03;;;3.95;;
70199;SDS011;57587;55.688;37.600;2023-10-19T07:17:50;7.63;;;4.20;;
70199;SDS011;57587;55.688;37.600;2023-10-19T07:20:21;5.35;;;3.50;;
70199;SDS011;57587;55.688;37.600;2023-10-19T07:22:53;6.30;;;3.70;;
70199;SDS011;57587;55.688;37.600;2023-10-19T07:25:24;5.82;;;3.28;;
70199;SDS011;57587;55.688;37.600;2023-10-19T07:27:52;4.70;;;3.25;;
70199;SDS011;57587;55.688;37.600;2023-10-19T07:30:20;5.07;;;3.30;;
70199;SDS011;57587;55.688;37.600;2023-10-19T07:32:49;6.90;;;3.78;;
70199;SDS011;57587;55.688;37.600;2023-10-19T07:35:26;6.03;;;4.00;;
70199;SDS011;57587;55.688;37.600;2023-10-19T07:37:54;5.45;;;3.70;;
70199;SDS011;57587;55.688;37.600;2023-10-19T07:40:24;7.80;;;3.60;;
70199;SDS011;57587;55.688;37.600;2023-10-19T07:42:52;7.30;;;3.80;;
70199;SDS011;57587;55.688;37.600;2023-10-19T07:45:21;6.30;;;4.13;;
70199;SDS011;57587;55.688;37.600;2023-10-19T07:47:49;4.20;;;3.30;;
70199;SDS011;57587;55.688;37.600;2023-10-19T07:50:17;4.93;;;3.47;;
70199;SDS011;57587;55.688;37.600;2023-10-19T07:52:47;4.47;;;3.55;;
70199;SDS011;57587;55.688;37.600;2023-10-19T07:55:16;4.55;;;3.67;;
70199;SDS011;57587;55.688;37.600;2023-10-19T07:57:45;6.28;;;3.90;;
70199;SDS011;57587;55.688;37.600;2023-10-19T08:00:12;5.67;;;3.57;;
70199;SDS011;57587;55.688;37.600;2023-10-19T08:02:44;4.65;;;3.08;;
70199;SDS011;57587;55.688;37.600;2023-10-19T08:05:14;5.28;;;3.75;;
70199;SDS011;57587;55.688;37.600;2023-10-19T08:07:45;7.07;;;3.75;;
70199;SDS011;57587;55.688;37.600;2023-10-19T08:10:16;5.10;;;3.63;;
70199;SDS011;57587;55.688;37.600;2023-10-19T08:12:45;4.57;;;2.90;;
70199;SDS011;57587;55.688;37.600;2023-10-19T08:15:14;4.40;;;3.25;;
70199;SDS011;57587;55.688;37.600;2023-10-19T08:17:44;6.22;;;3.70;;
70199;SDS011;57587;55.688;37.600;2023-10-19T08:20:14;4.80;;;3.40;;
70199;SDS011;57587;55.688;37.600;2023-10-19T08:22:52;5.15;;;3.38;;
70199;SDS011;57587;55.688;37.600;2023-10-19T08:25:21;4.70;;;3.77;;
70199;SDS011;57587;55.688;37.600;2023-10-19T08:27:48;5.30;;;3.30;;
70199;SDS011;57587;55.688;37.600;2023-10-19T08:30:17;10.30;;;4.07;;
70199;SDS011;57587;55.688;37.600;2023-10-19T08:32:48;4.75;;;3.20;;
70199;SDS011;57587;55.688;37.600;2023-10-19T08:35:16;4.53;;;3.22;;
70199;SDS011;57587;55.688;37.600;2023-10-19T08:37:47;5.50;;;3.50;;
70199;SDS011;57587;55.688;37.600;2023-10-19T08:40:15;5.70;;;3.70;;
70199;SDS011;57587;55.688;37.600;2023-10-19T08:42:45;6.45;;;3.92;;
70199;SDS011;57587;55.688;37.600;2023-10-19T08:45:13;6.00;;;3.78;;
70199;SDS011;57587;55.688;37.600;2023-10-19T08:47:43;6.15;;;3.60;;
70199;SDS011;57587;55.688;37.600;2023-10-19T08:50:15;6.57;;;4.00;;
70199;SDS011;57587;55.688;37.600;2023-10-19T08:52:42;5.43;;;3.60;;
70199;SDS011;57587;55.688;37.600;2023-10-19T08:55:10;5.15;;;3.70;;
70199;SDS011;57587;55.688;37.600;2023-10-19T08:57:39;5.80;;;4.00;;
70199;SDS011;57587;55.688;37.600;2023-10-19T09:00:07;7.00;;;4.38;;
70199;SDS011;57587;55.688;37.600;2023-10-19T09:02:36;7.80;;;4.20;;
70199;SDS011;57587;55.688;37.600;2023-10-19T09:05:06;11.68;;;4.47;;
70199;SDS011;57587;55.688;37.600;2023-10-19T09:07:34;6.07;;;3.42;;
70199;SDS011;57587;55.688;37.600;2023-10-19T09:10:01;7.25;;;3.70;;
70199;SDS011;57587;55.688;37.600;2023-10-19T09:12:32;6.20;;;3.95;;
70199;SDS011;57587;55.688;37.600;2023-10-19T09:15:00;6.33;;;4.23;;
70199;SDS011;57587;55.688;37.600;2023-10-19T09:17:29;6.28;;;4.30;;
70199;SDS011;57587;55.688;37.600;2023-10-19T09:19:59;7.47;;;4.28;;
70199;SDS011;57587;55.688;37.600;2023-10-19T09:22:35;6.55;;;3.70;;
70199;SDS011;57587;55.688;37.600;2023-10-19T09:25:11;6.78;;;4.10;;
70199;SDS011;57587;55.688;37.600;2023-10-19T09:27:38;5.93;;;4.00;;
70199;SDS011;57587;55.688;37.600;2023-10-19T09:30:05;5.75;;;3.70;;
70199;SDS011;57587;55.688;37.600;2023-10-19T09:32:35;6.05;;;3.75;;
70199;SDS011;57587;55.688;37.600;2023-10-19T09:35:02;5.15;;;3.75;;
70199;SDS011;57587;55.688;37.600;2023-10-19T09:37:31;5.50;;;4.00;;
70199;SDS011;57587;55.688;37.600;2023-10-19T09:39:59;5.30;;;3.90;;
70199;SDS011;57587;55.688;37.600;2023-10-19T09:42:29;6.13;;;4.60;;
70199;SDS011;57587;55.688;37.600;2023-10-19T09:44:59;5.85;;;3.53;;
70199;SDS011;57587;55.688;37.600;2023-10-19T09:47:34;5.78;;;3.95;;
70199;SDS011;57587;55.688;37.600;2023-10-19T09:50:06;6.93;;;3.80;;
70199;SDS011;57587;55.688;37.600;2023-10-19T09:52:34;4.77;;;3.40;;
70199;SDS011;57587;55.688;37.600;2023-10-19T10:00:29;4.45;;;3.60;;
70199;SDS011;57587;55.688;37.600;2023-10-19T10:03:01;5.60;;;3.90;;
70199;SDS011;57587;55.688;37.600;2023-10-19T10:10:44;9.23;;;4.22;;
70199;SDS011;57587;55.688;37.600;2023-10-19T10:15:57;7.25;;;4.43;;
70199;SDS011;57587;55.688;37.600;2023-10-19T10:18:26;7.03;;;4.13;;
70199;SDS011;57587;55.688;37.600;2023-10-19T10:21:37;7.82;;;4.95;;
70199;SDS011;57587;55.688;37.600;2023-10-19T10:24:00;6.40;;;4.70;;
70199;SDS011;57587;55.688;37.600;2023-10-19T10:26:31;7.53;;;4.80;;
70199;SDS011;57587;55.688;37.600;2023-10-19T10:29:21;8.98;;;5.00;;
70199;SDS011;57587;55.688;37.600;2023-10-19T10:31:50;8.17;;;5.20;;
70199;SDS011;57587;55.688;37.600;2023-10-19T10:37:04;8.55;;;5.25;;
70199;SDS011;57587;55.688;37.600;2023-10-19T10:39:35;9.25;;;4.72;;
70199;SDS011;57587;55.688;37.600;2023-10-19T10:42:03;7.00;;;5.00;;
70199;SDS011;57587;55.688;37.600;2023-10-19T10:44:35;9.83;;;5.30;;
70199;SDS011;57587;55.688;37.600;2023-10-19T10:52:30;8.05;;;5.60;;
70199;SDS011;57587;55.688;37.600;2023-10-19T10:55:08;13.25;;;7.57;;
70199;SDS011;57587;55.688;37.600;2023-10-19T10:57:40;11.05;;;7.55;;
70199;SDS011;57587;55.688;37.600;2023-10-19T11:00:12;12.70;;;7.68;;
70199;SDS011;57587;55.688;37.600;2023-10-19T11:02:46;14.05;;;8.02;;
70199;SDS011;57587;55.688;37.600;2023-10-19T11:05:15;9.57;;;5.40;;
70199;SDS011;57587;55.688;37.600;2023-10-19T11:10:33;8.73;;;5.57;;
70199;SDS011;57587;55.688;37.600;2023-10-19T11:13:04;8.88;;;5.57;;
70199;SDS011;57587;55.688;37.600;2023-10-19T11:15:34;10.13;;;5.80;;
70199;SDS011;57587;55.688;37.600;2023-10-19T11:18:01;8.00;;;5.65;;
70199;SDS011;57587;55.688;37.600;2023-10-19T11:20:29;10.93;;;6.03;;
70199;SDS011;57587;55.688;37.600;2023-10-19T11:22:57;7.83;;;5.60;;
70199;SDS011;57587;55.688;37.600;2023-10-19T11:25:28;7.50;;;4.32;;
70199;SDS011;57587;55.688;37.600;2023-10-19T11:27:57;8.63;;;5.22;;
70199;SDS011;57587;55.688;37.600;2023-10-19T11:30:26;13.50;;;6.25;;
70199;SDS011;57587;55.688;37.600;2023-10-19T11:32:58;9.45;;;5.63;;
70199;SDS011;57587;55.688;37.600;2023-10-19T11:35:29;7.57;;;5.20;;
70199;SDS011;57587;55.688;37.600;2023-10-19T11:37:58;10.93;;;5.03;;
70199;SDS011;57587;55.688;37.600;2023-10-19T11:40:27;9.70;;;6.30;;
70199;SDS011;57587;55.688;37.600;2023-10-19T11:42:55;11.40;;;5.20;;
70199;SDS011;57587;55.688;37.600;2023-10-19T11:45:27;10.88;;;6.47;;
70199;SDS011;57587;55.688;37.600;2023-10-19T11:47:55;9.13;;;6.10;;
70199;SDS011;57587;55.688;37.600;2023-10-19T11:50:24;10.82;;;5.63;;
70199;SDS011;57587;55.688;37.600;2023-10-19T11:52:51;10.88;;;5.90;;
70199;SDS011;57587;55.688;37.600;2023-10-19T11:55:19;8.40;;;5.30;;
70199;SDS011;57587;55.688;37.600;2023-10-19T11:57:48;6.97;;;4.05;;
70199;SDS011;57587;55.688;37.600;2023-10-19T12:00:15;9.07;;;3.90;;
70199;SDS011;57587;55.688;37.600;2023-10-19T12:03:04;7.72;;;4.20;;
70199;SDS011;57587;55.688;37.600;2023-10-19T12:05:33;7.40;;;4.47;;
70199;SDS011;57587;55.688;37.600;2023-10-19T12:08:03;7.13;;;4.15;;
70199;SDS011;57587;55.688;37.600;2023-10-19T12:10:31;7.57;;;3.65;;
70199;SDS011;57587;55.688;37.600;2023-10-19T12:13:02;7.40;;;4.33;;
70199;SDS011;57587;55.688;37.600;2023-10-19T12:15:30;8.70;;;4.03;;
70199;SDS011;57587;55.688;37.600;2023-10-19T12:17:57;6.07;;;4.10;;
70199;SDS011;57587;55.688;37.600;2023-10-19T12:20:25;5.97;;;3.45;;
70199;SDS011;57587;55.688;37.600;2023-10-19T12:22:53;6.13;;;4.03;;
70199;SDS011;57587;55.688;37.600;2023-10-19T12:25:22;8.27;;;4.60;;
70199;SDS011;57587;55.688;37.600;2023-10-19T12:28:15;6.90;;;4.20;;
70199;SDS011;57587;55.688;37.600;2023-10-19T12:30:45;8.77;;;5.30;;
70199;SDS011;57587;55.688;37.600;2023-10-19T12:33:12;8.07;;;4.38;;
70199;SDS011;57587;55.688;37.600;2023-10-19T12:35:40;8.93;;;5.40;;
70199;SDS011;57587;55.688;37.600;2023-10-19T12:38:26;9.30;;;5.77;;
70199;SDS011;57587;55.688;37.600;2023-10-19T12:40:54;12.00;;;6.70;;
70199;SDS011;57587;55.688;37.600;2023-10-19T12:43:21;10.68;;;6.20;;
70199;SDS011;57587;55.688;37.600;2023-10-19T12:45:49;10.60;;;5.55;;
70199;SDS011;57587;55.688;37.600;2023-10-19T12:48:24;7.68;;;5.07;;
70199;SDS011;57587;55.688;37.600;2023-10-19T12:51:01;9.87;;;5.80;;
70199;SDS011;57587;55.688;37.600;2023-10-19T12:53:28;8.15;;;5.70;;
70199;SDS011;57587;55.688;37.600;2023-10-19T12:55:56;13.35;;;5.72;;
70199;SDS011;57587;55.688;37.600;2023-10-19T12:58:23;7.68;;;4.80;;
70199;SDS011;57587;55.688;37.600;2023-10-19T13:00:57;7.22;;;4.72;;
70199;SDS011;57587;55.688;37.600;2023-10-19T13:03:25;7.67;;;5.13;;
70199;SDS011;57587;55.688;37.600;2023-10-19T13:05:59;9.23;;;5.35;;
70199;SDS011;57587;55.688;37.600;2023-10-19T13:08:28;8.88;;;5.10;;
70199;SDS011;57587;55.688;37.600;2023-10-19T13:10:55;10.07;;;5.88;;
70199;SDS011;57587;55.688;37.600;2023-10-19T13:13:34;11.80;;;5.68;;
70199;SDS011;57587;55.688;37.600;2023-10-19T13:16:04;6.50;;;4.17;;
70199;SDS011;57587;55.688;37.600;2023-10-19T13:18:36;8.40;;;4.70;;
70199;SDS011;57587;55.688;37.600;2023-10-19T13:21:03;7.55;;;4.72;;
70199;SDS011;57587;55.688;37.600;2023-10-19T13:23:32;7.78;;;4.30;;
70199;SDS011;57587;55.688;37.600;2023-10-19T13:26:02;6.45;;;3.70;;
70199;SDS011;57587;55.688;37.600;2023-10-19T13:28:45;5.33;;;3.33;;
70199;SDS011;57587;55.688;37.600;2023-10-19T13:31:14;6.90;;;3.42;;
70199;SDS011;57587;55.688;37.600;2023-10-19T13:33:43;6.18;;;3.92;;
70199;SDS011;57587;55.688;37.600;2023-10-19T13:36:12;6.00;;;3.33;;
70199;SDS011;57587;55.688;37.600;2023-10-19T13:38:40;8.27;;;5.28;;
70199;SDS011;57587;55.688;37.600;2023-10-19T13:41:09;4.93;;;3.40;;
70199;SDS011;57587;55.688;37.600;2023-10-19T13:43:40;4.53;;;3.42;;
70199;SDS011;57587;55.688;37.600;2023-10-19T13:46:11;5.88;;;3.20;;
70199;SDS011;57587;55.688;37.600;2023-10-19T13:48:38;4.88;;;3.33;;
70199;SDS011;57587;55.688;37.600;2023-10-19T13:51:07;6.78;;;3.60;;
70199;SDS011;57587;55.688;37.600;2023-10-19T13:53:42;6.57;;;3.80;;
70199;SDS011;57587;55.688;37.600;2023-10-19T13:56:12;7.95;;;3.47;;
70199;SDS011;57587;55.688;37.600;2023-10-19T13:58:41;7.05;;;3.80;;
70199;SDS011;57587;55.688;37.600;2023-10-19T14:01:09;5.65;;;3.33;;
70199;SDS011;57587;55.688;37.600;2023-10-19T14:03:38;6.85;;;3.50;;
70199;SDS011;57587;55.688;37.600;2023-10-19T14:06:11;5.20;;;3.23;;
70199;SDS011;57587;55.688;37.600;2023-10-19T14:08:42;5.22;;;3.05;;
70199;SDS011;57587;55.688;37.600;2023-10-19T14:11:09;5.20;;;3.63;;
70199;SDS011;57587;55.688;37.600;2023-10-19T14:13:40;6.00;;;3.97;;
70199;SDS011;57587;55.688;37.600;2023-10-19T14:16:10;5.53;;;3.67;;
70199;SDS011;57587;55.688;37.600;2023-10-19T14:18:39;5.97;;;3.37;;
70199;SDS011;57587;55.688;37.600;2023-10-19T14:21:16;8.35;;;4.10;;
70199;SDS011;57587;55.688;37.600;2023-10-19T14:23:45;5.15;;;3.67;;
70199;SDS011;57587;55.688;37.600;2023-10-19T14:26:13;7.70;;;4.55;;
70199;SDS011;57587;55.688;37.600;2023-10-19T14:28:41;6.45;;;3.75;;
70199;SDS011;57587;55.688;37.600;2023-10-19T14:31:09;5.47;;;3.50;;
70199;SDS011;57587;55.688;37.600;2023-10-19T14:33:38;5.32;;;3.53;;
70199;SDS011;57587;55.688;37.600;2023-10-19T14:36:06;7.20;;;3.78;;
70199;SDS011;57587;55.688;37.600;2023-10-19T14:38:33;10.48;;;5.28;;
70199;SDS011;57587;55.688;37.600;2023-10-19T14:41:02;5.85;;;4.45;;
70199;SDS011;57587;55.688;37.600;2023-10-19T14:43:30;7.53;;;4.33;;
70199;SDS011;57587;55.688;37.600;2023-10-19T14:45:57;5.72;;;3.92;;
70199;SDS011;57587;55.688;37.600;2023-10-19T14:48:26;9.18;;;4.55;;
70199;SDS011;57587;55.688;37.600;2023-10-19T14:50:56;7.40;;;4.28;;
70199;SDS011;57587;55.688;37.600;2023-10-19T14:53:25;8.55;;;4.07;;
70199;SDS011;57587;55.688;37.600;2023-10-19T14:55:56;7.30;;;4.43;;
70199;SDS011;57587;55.688;37.600;2023-10-19T14:58:24;4.80;;;3.45;;
70199;SDS011;57587;55.688;37.600;2023-10-19T15:00:52;9.95;;;4.40;;
70199;SDS011;57587;55.688;37.600;2023-10-19T15:03:23;6.68;;;4.22;;
70199;SDS011;57587;55.688;37.600;2023-10-19T15:05:52;12.30;;;4.05;;
70199;SDS011;57587;55.688;37.600;2023-10-19T15:08:21;10.73;;;4.47;;
70199;SDS011;57587;55.688;37.600;2023-10-19T15:10:54;8.00;;;4.50;;
70199;SDS011;57587;55.688;37.600;2023-10-19T15:13:22;7.18;;;3.97;;
70199;SDS011;57587;55.688;37.600;2023-10-19T15:15:49;7.78;;;4.50;;
70199;SDS011;57587;55.688;37.600;2023-10-19T15:18:20;9.55;;;5.03;;